Time;durP1;ratioP1;P1;durP2;ratioP2;P2;SDS_P1;SDS_P2;PMS_P1;PMS_P2;Temp;Humidity;BMP_temperature;BMP_pressure;BME280_temperature;BME280_humidity;BME280_pressure;Samples;Min_cycle;Max_cycle;Signal;HPM_P1;HPM_P2
2023/04/07 00:02:14;;;;;;;181.05;52.78;;;;;;;;;;4789544;30;20059;-86
2023/04/07 00:05:01;;;;;;;54.42;24.67;;;;;;;;;;4795822;29;20043;-85
2023/04/07 00:07:46;;;;;;;48.88;22.63;;;;;;;;;;4783640;29;20055;-84
2023/04/07 00:10:31;;;;;;;58.05;25.20;;;;;;;;;;4790627;30;20052;-84
2023/04/07 00:13:19;;;;;;;45.03;19.38;;;;;;;;;;4796083;29;20059;-84
2023/04/07 00:16:04;;;;;;;34.58;16.67;;;;;;;;;;4783071;29;20055;-85
2023/04/07 00:18:50;;;;;;;41.50;18.73;;;;;;;;;;4795828;29;20474;-85
2023/04/07 00:21:35;;;;;;;35.55;16.15;;;;;;;;;;4776997;30;20059;-85
2023/04/07 00:24:23;;;;;;;38.33;17.15;;;;;;;;;;4791335;30;20051;-84
2023/04/07 00:27:09;;;;;;;30.83;14.90;;;;;;;;;;4788619;29;20035;-86
2023/04/07 00:29:54;;;;;;;38.28;16.58;;;;;;;;;;4786280;30;20063;-83
2023/04/07 00:32:40;;;;;;;38.00;17.23;;;;;;;;;;4801129;29;20063;-84
2023/04/07 00:35:33;;;;;;;62.80;21.27;;;;;;;;;;4788443;29;20486;-84
2023/04/07 00:38:18;;;;;;;40.85;16.77;;;;;;;;;;4795248;30;20072;-86
2023/04/07 00:41:03;;;;;;;35.50;16.50;;;;;;;;;;4794729;30;20051;-85
2023/04/07 00:43:50;;;;;;;29.27;14.57;;;;;;;;;;4780790;30;20402;-84
2023/04/07 00:46:42;;;;;;;35.88;16.25;;;;;;;;;;4790721;30;20051;-85
2023/04/07 00:49:28;;;;;;;32.30;15.50;;;;;;;;;;4782181;29;20046;-83
2023/04/07 00:52:15;;;;;;;36.60;17.80;;;;;;;;;;4789912;30;20402;-86
2023/04/07 00:55:00;;;;;;;32.38;15.77;;;;;;;;;;4769617;29;20051;-84
2023/04/07 00:57:51;;;;;;;24.77;11.40;;;;;;;;;;4782220;29;20055;-86
2023/04/07 01:00:58;;;;;;;24.25;11.52;;;;;;;;;;4794533;29;20055;-86
2023/04/07 01:03:57;;;;;;;24.63;12.57;;;;;;;;;;4785515;29;20496;-87
2023/04/07 01:10:40;;;;;;;23.48;11.52;;;;;;;;;;4782036;29;20055;-85
2023/04/07 01:13:40;;;;;;;26.48;13.13;;;;;;;;;;4802775;29;20047;-84
2023/04/07 01:16:38;;;;;;;21.05;11.52;;;;;;;;;;4781841;29;20051;-85
2023/04/07 01:19:35;;;;;;;28.73;12.10;;;;;;;;;;4781657;29;20047;-85
2023/04/07 01:22:56;;;;;;;23.52;12.85;;;;;;;;;;4781503;29;20094;-86
2023/04/07 01:25:58;;;;;;;27.17;11.80;;;;;;;;;;4788695;29;20536;-86
2023/04/07 01:29:10;;;;;;;23.67;12.45;;;;;;;;;;4810130;29;20074;-85
2023/04/07 01:31:57;;;;;;;25.52;12.63;;;;;;;;;;4797659;29;20051;-85
2023/04/07 01:34:44;;;;;;;23.95;12.43;;;;;;;;;;4812388;29;20046;-87
2023/04/07 01:37:31;;;;;;;30.02;14.57;;;;;;;;;;4812017;29;20055;-84
2023/04/07 01:40:16;;;;;;;32.70;15.27;;;;;;;;;;4811563;29;20051;-84
2023/04/07 01:43:02;;;;;;;30.80;15.05;;;;;;;;;;4811627;29;20050;-84
2023/04/07 01:45:49;;;;;;;27.98;13.82;;;;;;;;;;4811946;29;20058;-86
2023/04/07 01:48:35;;;;;;;22.75;12.52;;;;;;;;;;4807147;29;20055;-86
2023/04/07 01:51:22;;;;;;;23.77;11.80;;;;;;;;;;4799466;29;20489;-84
2023/04/07 01:54:08;;;;;;;21.30;12.57;;;;;;;;;;4811921;29;20059;-85
2023/04/07 01:56:52;;;;;;;20.58;10.48;;;;;;;;;;4805905;29;20058;-84
2023/04/07 01:59:39;;;;;;;19.58;11.18;;;;;;;;;;4811774;29;20058;-85
2023/04/07 02:02:27;;;;;;;26.42;12.95;;;;;;;;;;4811468;29;20416;-85
2023/04/07 02:05:16;;;;;;;22.70;11.38;;;;;;;;;;4798946;29;20042;-85
2023/04/07 02:08:06;;;;;;;22.88;12.40;;;;;;;;;;4806870;29;20058;-86
2023/04/07 02:10:56;;;;;;;28.60;13.02;;;;;;;;;;4811793;29;20046;-83
2023/04/07 02:13:44;;;;;;;29.02;14.52;;;;;;;;;;4811330;29;20059;-86
2023/04/07 02:16:32;;;;;;;21.40;13.02;;;;;;;;;;4811836;29;20046;-84
2023/04/07 02:19:19;;;;;;;22.33;13.15;;;;;;;;;;4798801;29;20059;-86
2023/04/07 02:22:05;;;;;;;42.90;21.42;;;;;;;;;;4811532;29;20055;-85
2023/04/07 02:24:50;;;;;;;60.85;26.73;;;;;;;;;;4811388;29;20054;-86
2023/04/07 02:27:35;;;;;;;65.68;29.10;;;;;;;;;;4806414;29;20405;-86
2023/04/07 02:30:21;;;;;;;70.68;26.40;;;;;;;;;;4805306;29;20417;-85
2023/04/07 02:33:06;;;;;;;50.90;22.00;;;;;;;;;;4811144;29;20066;-85
2023/04/07 02:35:51;;;;;;;48.17;23.77;;;;;;;;;;4798744;29;20489;-85
2023/04/07 02:38:36;;;;;;;56.15;27.25;;;;;;;;;;4806446;29;20058;-85
2023/04/07 02:41:22;;;;;;;58.50;26.63;;;;;;;;;;4811383;29;20050;-86
2023/04/07 02:44:07;;;;;;;56.92;29.30;;;;;;;;;;4805665;29;20429;-84
2023/04/07 02:46:55;;;;;;;43.67;22.33;;;;;;;;;;4798492;29;20405;-84
2023/04/07 02:49:41;;;;;;;36.42;20.38;;;;;;;;;;4786195;29;20047;-85
2023/04/07 02:52:26;;;;;;;36.08;18.90;;;;;;;;;;4811529;29;20058;-85
2023/04/07 02:55:12;;;;;;;38.40;20.90;;;;;;;;;;4799049;29;20408;-85
2023/04/07 02:57:58;;;;;;;41.05;19.00;;;;;;;;;;4811060;29;20051;-85
2023/04/07 03:00:55;;;;;;;38.85;18.75;;;;;;;;;;4811223;29;20058;-85
2023/04/07 03:03:46;;;;;;;36.03;17.60;;;;;;;;;;4811318;29;20047;-86
2023/04/07 03:06:35;;;;;;;29.77;16.60;;;;;;;;;;4786207;29;20417;-84
2023/04/07 03:09:31;;;;;;;31.67;17.40;;;;;;;;;;4811339;29;20058;-84
2023/04/07 03:12:16;;;;;;;28.52;16.73;;;;;;;;;;4798572;29;20059;-83
2023/04/07 03:15:01;;;;;;;29.02;16.40;;;;;;;;;;4798085;29;20059;-84
2023/04/07 03:17:48;;;;;;;33.10;18.55;;;;;;;;;;4811419;29;20050;-85
2023/04/07 03:20:34;;;;;;;40.15;22.45;;;;;;;;;;4811371;29;20047;-85
2023/04/07 03:23:28;;;;;;;39.85;21.13;;;;;;;;;;4798124;29;20051;-85
2023/04/07 03:26:13;;;;;;;41.97;19.02;;;;;;;;;;4812330;29;20054;-87
2023/04/07 03:28:59;;;;;;;70.53;27.55;;;;;;;;;;4810947;29;20054;-87
2023/04/07 03:31:45;;;;;;;40.20;19.98;;;;;;;;;;4799255;29;20058;-84
2023/04/07 03:34:33;;;;;;;35.30;16.63;;;;;;;;;;4809058;29;20485;-85
2023/04/07 03:37:19;;;;;;;23.92;13.65;;;;;;;;;;4814009;29;20047;-85
2023/04/07 03:40:05;;;;;;;30.17;16.08;;;;;;;;;;4801374;29;20055;-84
2023/04/07 03:42:54;;;;;;;30.52;15.80;;;;;;;;;;4800948;29;20050;-84
2023/04/07 03:45:40;;;;;;;26.15;14.20;;;;;;;;;;4801587;29;20055;-86
2023/04/07 03:48:26;;;;;;;26.63;14.68;;;;;;;;;;4813789;29;20051;-84
2023/04/07 03:51:20;;;;;;;20.92;11.63;;;;;;;;;;4801361;29;20055;-85
2023/04/07 03:54:10;;;;;;;22.90;12.25;;;;;;;;;;4789596;29;20047;-84
2023/04/07 03:57:01;;;;;;;25.98;14.10;;;;;;;;;;4813928;29;20050;-86
2023/04/07 03:59:49;;;;;;;27.63;16.33;;;;;;;;;;4812268;29;20062;-84
2023/04/07 04:02:36;;;;;;;33.55;16.83;;;;;;;;;;4805808;29;20054;-85
2023/04/07 04:05:21;;;;;;;35.20;19.30;;;;;;;;;;4800359;29;20054;-85
2023/04/07 04:08:07;;;;;;;42.40;18.50;;;;;;;;;;4817840;29;20054;-83
2023/04/07 04:10:56;;;;;;;34.65;17.08;;;;;;;;;;4818842;29;20054;-85
2023/04/07 04:13:44;;;;;;;30.73;16.13;;;;;;;;;;4806639;29;20058;-84
2023/04/07 04:16:30;;;;;;;52.80;22.02;;;;;;;;;;4805963;29;20061;-85
2023/04/07 04:19:20;;;;;;;51.30;23.17;;;;;;;;;;4818758;29;20054;-84
2023/04/07 04:22:06;;;;;;;31.55;15.68;;;;;;;;;;4806621;29;20054;-85
2023/04/07 04:24:59;;;;;;;27.13;16.70;;;;;;;;;;4800695;29;20058;-84
2023/04/07 04:27:45;;;;;;;37.55;17.02;;;;;;;;;;4795225;29;20055;-83
2023/04/07 04:30:36;;;;;;;30.98;16.67;;;;;;;;;;4791056;29;20055;-84
2023/04/07 04:33:22;;;;;;;37.13;20.33;;;;;;;;;;4795330;29;20066;-85
2023/04/07 04:36:15;;;;;;;33.83;19.27;;;;;;;;;;4797019;29;20063;-86
2023/04/07 04:39:00;;;;;;;32.13;18.25;;;;;;;;;;4800322;29;20063;-84
2023/04/07 04:41:46;;;;;;;30.23;15.68;;;;;;;;;;4787776;29;20051;-83
2023/04/07 04:44:32;;;;;;;23.52;14.27;;;;;;;;;;4787734;29;20059;-86
2023/04/07 04:47:19;;;;;;;27.50;15.75;;;;;;;;;;4788244;29;20481;-85
2023/04/07 04:50:06;;;;;;;26.13;15.45;;;;;;;;;;4787779;29;20051;-84
2023/04/07 04:52:53;;;;;;;24.02;14.18;;;;;;;;;;4787406;29;20424;-86
2023/04/07 04:55:45;;;;;;;25.77;14.77;;;;;;;;;;4802222;29;20050;-87
2023/04/07 04:58:34;;;;;;;29.45;16.67;;;;;;;;;;4818069;29;20046;-85
2023/04/07 05:01:19;;;;;;;30.15;15.52;;;;;;;;;;4804589;29;20051;-85
2023/04/07 05:04:13;;;;;;;30.42;16.63;;;;;;;;;;4783238;29;20043;-85
2023/04/07 05:07:04;;;;;;;30.90;17.25;;;;;;;;;;4794143;29;20051;-86
2023/04/07 05:09:50;;;;;;;31.38;17.08;;;;;;;;;;4816039;29;20051;-86
2023/04/07 05:12:38;;;;;;;29.05;17.05;;;;;;;;;;4784523;29;20051;-84
2023/04/07 05:15:24;;;;;;;33.30;16.38;;;;;;;;;;4793221;29;20051;-85
2023/04/07 05:18:09;;;;;;;27.50;15.07;;;;;;;;;;4824172;29;20054;-83
2023/04/07 05:20:55;;;;;;;32.50;16.55;;;;;;;;;;4804943;29;20401;-85
2023/04/07 05:23:42;;;;;;;31.75;17.00;;;;;;;;;;4817349;29;20050;-86
2023/04/07 05:26:28;;;;;;;33.30;16.83;;;;;;;;;;4798918;29;20401;-85
2023/04/07 05:29:14;;;;;;;37.72;17.60;;;;;;;;;;4785601;29;20050;-84
2023/04/07 05:32:00;;;;;;;56.00;24.50;;;;;;;;;;4785638;29;20051;-85
2023/04/07 05:34:47;;;;;;;70.13;30.23;;;;;;;;;;4798953;29;20063;-84
2023/04/07 05:37:33;;;;;;;50.80;25.23;;;;;;;;;;4786176;29;20062;-85
2023/04/07 05:40:23;;;;;;;61.05;26.90;;;;;;;;;;4798560;29;20054;-85
2023/04/07 05:43:09;;;;;;;51.42;26.60;;;;;;;;;;4785797;29;20047;-85
2023/04/07 05:45:54;;;;;;;49.97;27.23;;;;;;;;;;4799008;29;20043;-85
2023/04/07 05:48:41;;;;;;;49.17;24.92;;;;;;;;;;4799016;29;20046;-85
2023/04/07 05:51:26;;;;;;;42.85;23.20;;;;;;;;;;4799364;29;20055;-86
2023/04/07 05:54:14;;;;;;;47.25;25.65;;;;;;;;;;4786182;29;20405;-84
2023/04/07 05:57:00;;;;;;;42.17;22.70;;;;;;;;;;4799583;29;20054;-84
2023/04/07 05:59:47;;;;;;;41.70;22.73;;;;;;;;;;4799124;29;20054;-86
2023/04/07 06:02:33;;;;;;;50.38;26.08;;;;;;;;;;4795337;29;20055;-86
2023/04/07 06:05:19;;;;;;;47.28;25.42;;;;;;;;;;4782152;29;20042;-79
2023/04/07 06:08:07;;;;;;;51.70;26.08;;;;;;;;;;4799245;29;20595;-81
2023/04/07 06:10:52;;;;;;;60.88;32.35;;;;;;;;;;4801034;29;20050;-84
2023/04/07 06:13:37;;;;;;;63.25;34.85;;;;;;;;;;4801921;29;20059;-80
2023/04/07 06:16:23;;;;;;;40.15;25.10;;;;;;;;;;4800321;29;20485;-80
2023/04/07 06:19:07;;;;;;;37.35;22.83;;;;;;;;;;4801096;29;20055;-80
2023/04/07 06:21:52;;;;;;;52.45;24.30;;;;;;;;;;4786248;29;20413;-80
2023/04/07 06:24:38;;;;;;;43.83;23.85;;;;;;;;;;4794451;29;20050;-81
2023/04/07 06:27:23;;;;;;;42.80;24.55;;;;;;;;;;4786020;29;20051;-80
2023/04/07 06:30:09;;;;;;;46.92;28.15;;;;;;;;;;4796317;29;20066;-79
2023/04/07 06:32:54;;;;;;;43.70;27.63;;;;;;;;;;4799922;29;20062;-82
2023/04/07 06:35:40;;;;;;;51.63;25.67;;;;;;;;;;4801549;29;20059;-80
2023/04/07 06:38:26;;;;;;;52.97;28.08;;;;;;;;;;4798370;29;20051;-82
2023/04/07 06:41:15;;;;;;;55.35;28.25;;;;;;;;;;4799672;29;20401;-84
2023/04/07 06:44:01;;;;;;;114.97;50.30;;;;;;;;;;4793472;29;20492;-82
2023/04/07 06:46:49;;;;;;;43.25;20.90;;;;;;;;;;4799959;29;20039;-81
2023/04/07 06:49:34;;;;;;;59.92;27.98;;;;;;;;;;4801771;29;20050;-83
2023/04/07 06:52:20;;;;;;;52.67;26.38;;;;;;;;;;4799751;29;20054;-82
2023/04/07 06:55:06;;;;;;;76.10;36.72;;;;;;;;;;4792863;29;20054;-80
2023/04/07 06:57:52;;;;;;;69.57;32.88;;;;;;;;;;4799786;29;20063;-81
2023/04/07 07:00:37;;;;;;;51.42;29.02;;;;;;;;;;4799193;29;20042;-84
2023/04/07 07:03:23;;;;;;;88.90;37.33;;;;;;;;;;4799618;29;20035;-85
2023/04/07 07:06:08;;;;;;;47.70;25.38;;;;;;;;;;4800587;29;20051;-85
2023/04/07 07:08:54;;;;;;;62.75;32.10;;;;;;;;;;4805136;29;20047;-83
2023/04/07 07:11:40;;;;;;;48.38;23.63;;;;;;;;;;4802761;29;20043;-83
2023/04/07 07:14:25;;;;;;;115.57;43.58;;;;;;;;;;4805170;29;20046;-83
2023/04/07 07:17:10;;;;;;;32.22;17.67;;;;;;;;;;4803222;29;20055;-83
2023/04/07 07:19:55;;;;;;;33.58;16.60;;;;;;;;;;4807545;29;20047;-83
2023/04/07 07:22:40;;;;;;;20.00;9.45;;;;;;;;;;4803741;29;20051;-82
2023/04/07 07:25:26;;;;;;;21.23;13.20;;;;;;;;;;4802567;29;20051;-83
2023/04/07 07:28:12;;;;;;;14.75;9.50;;;;;;;;;;4801623;29;20504;-84
2023/04/07 07:30:58;;;;;;;18.27;10.20;;;;;;;;;;4804605;29;20055;-84
2023/04/07 07:33:45;;;;;;;8.48;5.30;;;;;;;;;;4802839;29;20058;-81
2023/04/07 07:36:31;;;;;;;11.10;6.25;;;;;;;;;;4803614;29;20050;-82
2023/04/07 07:39:16;;;;;;;19.83;10.70;;;;;;;;;;4804940;29;20050;-83
2023/04/07 07:42:02;;;;;;;20.48;8.63;;;;;;;;;;4802858;29;20496;-81
2023/04/07 07:44:47;;;;;;;7.53;4.47;;;;;;;;;;4796133;29;20106;-81
2023/04/07 07:47:32;;;;;;;12.32;7.75;;;;;;;;;;4797602;29;20050;-84
2023/04/07 07:50:18;;;;;;;30.77;11.18;;;;;;;;;;4803781;29;20051;-81
2023/04/07 07:53:03;;;;;;;22.75;10.35;;;;;;;;;;4802278;29;20397;-81
2023/04/07 07:55:49;;;;;;;23.50;10.68;;;;;;;;;;4804179;29;20434;-82
2023/04/07 07:58:34;;;;;;;28.33;12.18;;;;;;;;;;4801398;29;20039;-81
2023/04/07 08:01:20;;;;;;;20.42;10.02;;;;;;;;;;4801650;29;20051;-80
2023/04/07 08:04:05;;;;;;;11.25;6.53;;;;;;;;;;4794782;29;20524;-82
2023/04/07 08:06:51;;;;;;;19.27;9.45;;;;;;;;;;4800614;29;20042;-81
2023/04/07 08:09:35;;;;;;;16.38;8.95;;;;;;;;;;4794559;29;20058;-80
2023/04/07 08:12:20;;;;;;;17.88;10.52;;;;;;;;;;4802338;29;20501;-81
2023/04/07 08:15:09;;;;;;;7.38;4.80;;;;;;;;;;4803403;29;20042;-83
2023/04/07 08:17:53;;;;;;;14.00;8.40;;;;;;;;;;4786692;29;20047;-80
2023/04/07 08:20:38;;;;;;;18.20;9.95;;;;;;;;;;4803973;29;20046;-81
2023/04/07 08:23:24;;;;;;;34.17;11.73;;;;;;;;;;4802111;29;20667;-82
2023/04/07 08:26:09;;;;;;;12.85;7.97;;;;;;;;;;4807466;29;20054;-80
2023/04/07 08:28:55;;;;;;;18.00;5.85;;;;;;;;;;4802672;29;20043;-82
2023/04/07 08:31:40;;;;;;;11.98;5.82;;;;;;;;;;4800619;29;20055;-82
2023/04/07 08:34:26;;;;;;;21.65;11.30;;;;;;;;;;4800745;29;20055;-81
2023/04/07 08:37:11;;;;;;;10.77;6.78;;;;;;;;;;4809391;29;20063;-81
2023/04/07 08:39:57;;;;;;;13.73;7.07;;;;;;;;;;4794390;29;20059;-82
2023/04/07 08:42:46;;;;;;;15.25;9.50;;;;;;;;;;4802342;29;20412;-83
2023/04/07 08:45:33;;;;;;;8.15;4.80;;;;;;;;;;4803554;29;20042;-83
2023/04/07 08:48:22;;;;;;;17.85;10.10;;;;;;;;;;4801866;29;20043;-82
2023/04/07 08:51:09;;;;;;;17.17;9.27;;;;;;;;;;4794531;29;20051;-82
2023/04/07 08:54:04;;;;;;;18.05;8.75;;;;;;;;;;4799819;29;20493;-82
2023/04/07 08:56:49;;;;;;;17.45;10.23;;;;;;;;;;4801016;29;20047;-82
2023/04/07 08:59:35;;;;;;;18.17;9.40;;;;;;;;;;4789400;29;20698;-82
2023/04/07 09:02:21;;;;;;;11.73;5.68;;;;;;;;;;4794672;29;20043;-82
2023/04/07 09:05:07;;;;;;;8.93;5.05;;;;;;;;;;4800060;29;20038;-80
2023/04/07 09:07:53;;;;;;;27.52;12.48;;;;;;;;;;4801485;29;20047;-79
2023/04/07 09:10:39;;;;;;;16.95;7.30;;;;;;;;;;4801496;29;20059;-81
2023/04/07 09:13:24;;;;;;;11.20;7.43;;;;;;;;;;4796169;29;20685;-79
2023/04/07 09:16:10;;;;;;;14.93;8.25;;;;;;;;;;4801416;29;20051;-81
2023/04/07 09:18:56;;;;;;;20.73;9.02;;;;;;;;;;4794129;29;20055;-82
2023/04/07 09:21:50;;;;;;;16.10;10.07;;;;;;;;;;4799741;29;20054;-79
2023/04/07 09:24:34;;;;;;;15.77;8.77;;;;;;;;;;4802327;29;20050;-78
2023/04/07 09:27:20;;;;;;;21.77;10.85;;;;;;;;;;4801006;29;20047;-81
2023/04/07 09:30:13;;;;;;;13.50;9.00;;;;;;;;;;4805082;29;20047;-81
2023/04/07 09:33:00;;;;;;;21.35;11.75;;;;;;;;;;4802695;29;20059;-80
2023/04/07 09:35:55;;;;;;;24.83;12.35;;;;;;;;;;4804469;29;20132;-80
2023/04/07 09:38:43;;;;;;;20.20;10.60;;;;;;;;;;4810297;29;20051;-81
2023/04/07 09:41:28;;;;;;;19.25;11.27;;;;;;;;;;4809937;29;20047;-80
2023/04/07 09:44:14;;;;;;;20.52;12.30;;;;;;;;;;4809695;29;20046;-81
2023/04/07 09:46:59;;;;;;;20.30;12.88;;;;;;;;;;4798141;29;20046;-81
2023/04/07 09:49:52;;;;;;;20.83;12.10;;;;;;;;;;4809685;29;20042;-81
2023/04/07 09:52:53;;;;;;;31.40;18.75;;;;;;;;;;4810705;29;20046;-82
2023/04/07 09:55:40;;;;;;;23.73;10.90;;;;;;;;;;4811546;29;20409;-81
2023/04/07 09:58:26;;;;;;;18.98;11.50;;;;;;;;;;4796175;29;20043;-80
2023/04/07 10:01:12;;;;;;;14.63;9.70;;;;;;;;;;4803392;29;20051;-80
2023/04/07 10:03:58;;;;;;;14.90;10.30;;;;;;;;;;4810720;29;20043;-82
2023/04/07 10:06:44;;;;;;;20.60;11.05;;;;;;;;;;4809662;29;20043;-81
2023/04/07 10:09:30;;;;;;;19.42;10.13;;;;;;;;;;4810656;29;20420;-81
2023/04/07 10:12:17;;;;;;;38.95;21.85;;;;;;;;;;4808520;29;20062;-81
2023/04/07 10:15:03;;;;;;;19.42;11.57;;;;;;;;;;4810000;29;20046;-81
2023/04/07 10:17:50;;;;;;;17.88;12.35;;;;;;;;;;4810536;29;20047;-80
2023/04/07 10:20:41;;;;;;;26.65;15.75;;;;;;;;;;4809136;29;20500;-82
2023/04/07 10:23:50;;;;;;;29.63;16.33;;;;;;;;;;4810597;29;20054;-80
2023/04/07 10:26:37;;;;;;;28.38;18.20;;;;;;;;;;4811455;29;20042;-81
2023/04/07 10:29:26;;;;;;;27.92;17.17;;;;;;;;;;4808056;29;20046;-81
2023/04/07 10:32:12;;;;;;;62.92;30.02;;;;;;;;;;4801757;29;20046;-81
2023/04/07 10:34:59;;;;;;;36.38;19.23;;;;;;;;;;4799948;29;20050;-81
2023/04/07 10:38:07;;;;;;;26.33;16.00;;;;;;;;;;4795094;29;20046;-82
2023/04/07 10:40:52;;;;;;;147.98;67.22;;;;;;;;;;4801373;29;20050;-83
2023/04/07 10:43:40;;;;;;;30.25;16.92;;;;;;;;;;4803648;29;20051;-80
2023/04/07 10:46:48;;;;;;;29.63;17.23;;;;;;;;;;4803982;29;20054;-81
2023/04/07 10:49:35;;;;;;;37.95;20.23;;;;;;;;;;4802034;29;20047;-79
2023/04/07 10:52:22;;;;;;;22.88;13.93;;;;;;;;;;4798814;29;20063;-81
2023/04/07 10:55:28;;;;;;;23.15;13.38;;;;;;;;;;4804019;29;20099;-81
2023/04/07 10:58:27;;;;;;;26.95;15.68;;;;;;;;;;4803767;29;20051;-80
2023/04/07 11:01:13;;;;;;;28.75;19.50;;;;;;;;;;4796771;29;20051;-82
2023/04/07 11:03:59;;;;;;;25.45;16.95;;;;;;;;;;4803056;29;20050;-80
2023/04/07 11:06:47;;;;;;;24.95;16.13;;;;;;;;;;4804631;29;20051;-82
2023/04/07 11:09:33;;;;;;;24.23;15.00;;;;;;;;;;4803487;29;21388;-82
2023/04/07 11:12:22;;;;;;;30.92;19.50;;;;;;;;;;4802223;29;20366;-81
2023/04/07 11:15:27;;;;;;;29.02;17.75;;;;;;;;;;4804951;29;20051;-81
2023/04/07 11:18:17;;;;;;;27.42;17.98;;;;;;;;;;4803766;29;20055;-82
2023/04/07 11:21:04;;;;;;;27.55;18.05;;;;;;;;;;4802675;29;20473;-83
2023/04/07 11:23:50;;;;;;;33.75;21.55;;;;;;;;;;4804495;29;20059;-82
2023/04/07 11:26:43;;;;;;;44.72;21.42;;;;;;;;;;4796323;29;20481;-81
2023/04/07 11:29:31;;;;;;;36.13;23.25;;;;;;;;;;4801149;29;20059;-80
2023/04/07 11:32:23;;;;;;;48.38;27.40;;;;;;;;;;4803269;29;20501;-81
2023/04/07 11:35:10;;;;;;;27.30;15.85;;;;;;;;;;4804736;29;20043;-80
2023/04/07 11:38:00;;;;;;;33.38;20.15;;;;;;;;;;4804699;29;20488;-81
2023/04/07 11:40:46;;;;;;;44.28;26.52;;;;;;;;;;4804589;29;20055;-82
2023/04/07 11:43:32;;;;;;;21.67;13.50;;;;;;;;;;4805559;29;20555;-80
2023/04/07 11:46:18;;;;;;;24.60;14.00;;;;;;;;;;4803890;29;20050;-81
2023/04/07 11:49:14;;;;;;;22.80;13.52;;;;;;;;;;4805208;29;20055;-82
2023/04/07 11:52:05;;;;;;;33.15;18.48;;;;;;;;;;4808398;29;20439;-81
2023/04/07 11:54:52;;;;;;;20.67;12.23;;;;;;;;;;4809518;29;20409;-80
2023/04/07 11:57:36;;;;;;;18.75;11.43;;;;;;;;;;4809409;29;20046;-80
2023/04/07 12:00:22;;;;;;;25.48;12.27;;;;;;;;;;4809980;29;20058;-80
2023/04/07 12:03:15;;;;;;;24.70;11.80;;;;;;;;;;4803691;29;20046;-82
2023/04/07 12:06:02;;;;;;;23.15;12.70;;;;;;;;;;4809683;29;20055;-79
2023/04/07 12:08:47;;;;;;;26.58;15.25;;;;;;;;;;4806525;29;20039;-82
2023/04/07 12:11:34;;;;;;;23.13;11.82;;;;;;;;;;4804191;29;20050;-80
2023/04/07 12:14:20;;;;;;;20.30;13.02;;;;;;;;;;4803766;29;20055;-80
2023/04/07 12:17:08;;;;;;;20.23;13.48;;;;;;;;;;4803907;29;20039;-83
2023/04/07 12:19:53;;;;;;;20.70;11.20;;;;;;;;;;4803670;29;20039;-82
2023/04/07 12:22:40;;;;;;;17.08;12.05;;;;;;;;;;4803645;29;20051;-80
2023/04/07 12:25:26;;;;;;;18.90;11.65;;;;;;;;;;4803776;29;20043;-82
2023/04/07 12:28:11;;;;;;;20.90;13.20;;;;;;;;;;4803870;29;20489;-82
2023/04/07 12:30:57;;;;;;;21.80;12.82;;;;;;;;;;4810540;29;20401;-81
2023/04/07 12:33:42;;;;;;;22.45;13.93;;;;;;;;;;4811744;29;20051;-82
2023/04/07 12:36:28;;;;;;;21.50;12.63;;;;;;;;;;4811282;29;20059;-81
2023/04/07 12:39:14;;;;;;;18.27;11.75;;;;;;;;;;4812737;29;20047;-81
2023/04/07 12:41:59;;;;;;;19.77;11.18;;;;;;;;;;4799645;29;20050;-81
2023/04/07 12:44:45;;;;;;;25.95;14.80;;;;;;;;;;4811784;29;20478;-81
2023/04/07 12:47:30;;;;;;;24.25;15.13;;;;;;;;;;4812538;29;20405;-81
2023/04/07 12:50:16;;;;;;;27.23;16.48;;;;;;;;;;4812642;29;20050;-82
2023/04/07 12:53:04;;;;;;;22.65;13.88;;;;;;;;;;4812259;29;20050;-83
2023/04/07 12:55:49;;;;;;;24.02;13.98;;;;;;;;;;4812454;29;20050;-82
2023/04/07 12:58:35;;;;;;;34.42;18.38;;;;;;;;;;4812169;29;20048;-81
2023/04/07 13:01:20;;;;;;;228.85;94.55;;;;;;;;;;4812593;29;20084;-81
2023/04/07 13:04:06;;;;;;;51.13;27.45;;;;;;;;;;4811423;29;20038;-82
2023/04/07 13:06:51;;;;;;;54.58;35.92;;;;;;;;;;4812099;29;20042;-81
2023/04/07 13:09:37;;;;;;;250.02;93.25;;;;;;;;;;4812627;29;20067;-81
2023/04/07 13:12:23;;;;;;;52.60;26.70;;;;;;;;;;4811616;29;20039;-83
2023/04/07 13:15:08;;;;;;;378.80;166.70;;;;;;;;;;4811784;29;20047;-82
2023/04/07 13:17:54;;;;;;;204.90;82.45;;;;;;;;;;4812193;29;20055;-78
2023/04/07 13:20:39;;;;;;;394.48;156.85;;;;;;;;;;4798406;29;20055;-79
2023/04/07 13:23:24;;;;;;;47.63;21.20;;;;;;;;;;4812010;29;20113;-79
2023/04/07 13:26:10;;;;;;;518.97;237.88;;;;;;;;;;4804283;29;20047;-80
2023/04/07 13:28:55;;;;;;;303.13;134.10;;;;;;;;;;4811686;29;20381;-77
2023/04/07 13:31:40;;;;;;;114.90;54.00;;;;;;;;;;4812070;29;20050;-82
2023/04/07 13:34:26;;;;;;;21.73;13.48;;;;;;;;;;4804765;29;20509;-80
2023/04/07 13:37:12;;;;;;;24.38;13.30;;;;;;;;;;4811713;29;20047;-81
2023/04/07 13:39:57;;;;;;;18.05;12.70;;;;;;;;;;4811547;29;20051;-81
2023/04/07 13:42:43;;;;;;;15.43;10.80;;;;;;;;;;4803892;29;20066;-80
2023/04/07 13:45:28;;;;;;;18.38;11.77;;;;;;;;;;4811268;29;20043;-81
2023/04/07 13:48:14;;;;;;;20.58;13.20;;;;;;;;;;4798527;29;20050;-81
2023/04/07 13:51:00;;;;;;;22.77;12.30;;;;;;;;;;4811171;29;20046;-81
2023/04/07 13:53:46;;;;;;;32.50;15.43;;;;;;;;;;4811015;29;20046;-81
2023/04/07 13:56:34;;;;;;;68.82;30.08;;;;;;;;;;4811123;29;20054;-80
2023/04/07 13:59:20;;;;;;;122.80;49.20;;;;;;;;;;4811616;29;20505;-80
2023/04/07 14:02:05;;;;;;;128.32;50.30;;;;;;;;;;4811226;29;20050;-81
2023/04/07 14:04:50;;;;;;;133.18;51.17;;;;;;;;;;4804001;29;20458;-81
2023/04/07 14:07:35;;;;;;;60.45;25.60;;;;;;;;;;4811522;29;20058;-81
2023/04/07 14:10:19;;;;;;;128.63;49.65;;;;;;;;;;4811718;29;20050;-79
2023/04/07 14:13:05;;;;;;;66.93;31.33;;;;;;;;;;4810514;29;20050;-81
2023/04/07 14:15:51;;;;;;;32.00;17.13;;;;;;;;;;4797300;29;20493;-79
2023/04/07 14:18:36;;;;;;;47.53;25.45;;;;;;;;;;4810598;29;20050;-79
2023/04/07 14:21:22;;;;;;;50.60;25.10;;;;;;;;;;4797636;29;20054;-80
2023/04/07 14:24:07;;;;;;;50.55;29.67;;;;;;;;;;4810866;29;20039;-81
2023/04/07 14:26:53;;;;;;;22.88;14.82;;;;;;;;;;4809473;29;20039;-80
2023/04/07 14:29:39;;;;;;;32.75;18.52;;;;;;;;;;4808145;29;20047;-81
2023/04/07 14:32:28;;;;;;;29.73;16.30;;;;;;;;;;4800514;29;20043;-83
2023/04/07 14:35:14;;;;;;;28.73;16.48;;;;;;;;;;4800292;29;20051;-80
2023/04/07 14:38:00;;;;;;;21.60;14.93;;;;;;;;;;4802312;29;20051;-81
2023/04/07 14:40:45;;;;;;;24.88;16.52;;;;;;;;;;4800558;29;20066;-83
2023/04/07 14:43:31;;;;;;;21.77;15.00;;;;;;;;;;4800542;29;20062;-81
2023/04/07 14:46:16;;;;;;;22.30;14.82;;;;;;;;;;4802098;29;20043;-81
2023/04/07 14:49:02;;;;;;;25.92;15.98;;;;;;;;;;4800376;29;20047;-82
2023/04/07 14:51:48;;;;;;;27.40;16.90;;;;;;;;;;4801942;29;20058;-82
2023/04/07 14:54:34;;;;;;;27.90;18.05;;;;;;;;;;4798419;29;20055;-81
2023/04/07 14:57:18;;;;;;;30.83;20.08;;;;;;;;;;4800093;29;20051;-81
2023/04/07 15:00:07;;;;;;;27.02;15.48;;;;;;;;;;4801747;29;20412;-81
2023/04/07 15:02:53;;;;;;;20.85;12.27;;;;;;;;;;4800259;29;20047;-81
2023/04/07 15:05:38;;;;;;;22.30;11.77;;;;;;;;;;4800749;29;20405;-82
2023/04/07 15:08:24;;;;;;;23.48;17.13;;;;;;;;;;4799302;29;20059;-85
2023/04/07 15:11:09;;;;;;;17.77;11.65;;;;;;;;;;4793162;29;20054;-82
2023/04/07 15:13:55;;;;;;;20.77;11.05;;;;;;;;;;4800890;29;20058;-81
2023/04/07 15:16:41;;;;;;;24.83;13.48;;;;;;;;;;4800046;29;20051;-81
2023/04/07 15:19:26;;;;;;;20.92;12.88;;;;;;;;;;4798954;29;20047;-81
2023/04/07 15:22:11;;;;;;;23.90;16.15;;;;;;;;;;4801520;29;20051;-81
2023/04/07 15:24:56;;;;;;;29.30;19.13;;;;;;;;;;4799390;29;20043;-81
2023/04/07 15:27:42;;;;;;;31.65;19.55;;;;;;;;;;4801938;29;20047;-82
2023/04/07 15:30:26;;;;;;;22.00;13.40;;;;;;;;;;4802307;29;20050;-82
2023/04/07 15:33:12;;;;;;;32.70;16.52;;;;;;;;;;4803816;29;20054;-81
2023/04/07 15:36:00;;;;;;;18.60;11.88;;;;;;;;;;4801652;29;20051;-82
2023/04/07 15:38:45;;;;;;;22.98;15.00;;;;;;;;;;4802908;29;20046;-82
2023/04/07 15:41:31;;;;;;;23.10;14.82;;;;;;;;;;4791208;29;20054;-80
2023/04/07 15:44:20;;;;;;;30.05;16.92;;;;;;;;;;4802315;29;20043;-81
2023/04/07 15:47:05;;;;;;;30.60;17.10;;;;;;;;;;4802583;29;20047;-81
2023/04/07 15:49:50;;;;;;;24.40;14.50;;;;;;;;;;4795089;29;20059;-83
2023/04/07 15:52:35;;;;;;;25.70;17.00;;;;;;;;;;4804827;29;20046;-79
2023/04/07 15:55:21;;;;;;;34.25;22.05;;;;;;;;;;4803330;29;20505;-82
2023/04/07 15:58:07;;;;;;;22.45;13.98;;;;;;;;;;4807738;29;20052;-81
2023/04/07 16:00:53;;;;;;;29.42;18.77;;;;;;;;;;4795632;29;20050;-83
2023/04/07 16:03:38;;;;;;;98.13;43.47;;;;;;;;;;4809822;29;20070;-81
2023/04/07 16:06:24;;;;;;;228.88;94.50;;;;;;;;;;4796044;29;20038;-81
2023/04/07 16:09:10;;;;;;;53.65;28.42;;;;;;;;;;4789139;29;20055;-82
2023/04/07 16:11:59;;;;;;;35.35;22.02;;;;;;;;;;4804473;29;20050;-81
2023/04/07 16:14:44;;;;;;;100.20;52.17;;;;;;;;;;4803109;29;20067;-80
2023/04/07 16:17:30;;;;;;;74.25;35.00;;;;;;;;;;4801329;29;20050;-81
2023/04/07 16:20:15;;;;;;;110.60;52.95;;;;;;;;;;4803217;29;20062;-82